Time;durP1;ratioP1;P1;durP2;ratioP2;P2;SDS_P1;SDS_P2;PMS_P1;PMS_P2;Temp;Humidity;BMP_temperature;BMP_pressure;BME280_temperature;BME280_humidity;BME280_pressure;Samples;Min_cycle;Max_cycle;Signal;HPM_P1;HPM_P2
2021/09/17 00:01:52;;;;;;;5.60;5.00;;;;;;;8.79;100.00;98117.34;5003416;28;20208;-68
2021/09/17 00:04:20;;;;;;;5.60;5.00;;;;;;;8.73;100.00;98118.81;4990859;28;20236;-66
2021/09/17 00:06:50;;;;;;;5.77;5.27;;;;;;;8.72;100.00;98124.22;5000328;28;20227;-68
2021/09/17 00:09:19;;;;;;;5.53;4.90;;;;;;;8.63;100.00;98124.13;4965632;28;20450;-66
2021/09/17 00:11:48;;;;;;;5.60;5.17;;;;;;;8.66;100.00;98123.84;5002827;28;20204;-68
2021/09/17 00:14:17;;;;;;;5.77;5.27;;;;;;;8.61;100.00;98112.88;4989628;28;20224;-66
2021/09/17 00:16:45;;;;;;;6.70;6.00;;;;;;;8.63;100.00;98120.66;5004383;28;20295;-68
2021/09/17 00:19:14;;;;;;;6.40;5.80;;;;;;;8.59;100.00;98119.28;4995109;28;20236;-66
2021/09/17 00:21:42;;;;;;;5.77;5.13;;;;;;;8.60;100.00;98118.31;4991150;28;20401;-67
2021/09/17 00:24:10;;;;;;;6.40;5.80;;;;;;;8.51;100.00;98106.81;4967185;28;20243;-66
2021/09/17 00:26:38;;;;;;;6.03;5.53;;;;;;;8.52;100.00;98124.31;4993279;28;20471;-68
2021/09/17 00:29:07;;;;;;;6.50;5.90;;;;;;;8.48;100.00;98118.50;5011416;28;20254;-66
2021/09/17 00:31:35;;;;;;;5.90;5.37;;;;;;;8.53;100.00;98120.72;5000624;28;20213;-67
2021/09/17 00:34:04;;;;;;;7.07;6.30;;;;;;;8.48;100.00;98122.94;5002799;28;20499;-68
2021/09/17 00:36:32;;;;;;;7.07;6.37;;;;;;;8.48;100.00;98120.28;4987709;28;20211;-67
2021/09/17 00:39:00;;;;;;;6.47;5.87;;;;;;;8.46;100.00;98117.81;4961315;28;20229;-67
2021/09/17 00:41:28;;;;;;;8.40;6.37;;;;;;;8.44;100.00;98119.75;4993122;28;20232;-67
2021/09/17 00:43:56;;;;;;;6.80;6.20;;;;;;;8.40;100.00;98121.03;5006299;28;20212;-67
2021/09/17 00:46:25;;;;;;;8.63;6.17;;;;;;;8.38;100.00;98115.88;4999460;28;20208;-66
2021/09/17 00:48:53;;;;;;;6.27;5.77;;;;;;;8.34;100.00;98116.34;4985443;28;20233;-67
2021/09/17 00:51:21;;;;;;;7.13;6.53;;;;;;;8.32;100.00;98111.19;4988727;28;20220;-66
2021/09/17 00:53:49;;;;;;;6.23;5.73;;;;;;;8.28;100.00;98112.47;4970963;28;20244;-68
2021/09/17 00:56:18;;;;;;;6.50;5.90;;;;;;;8.34;100.00;98114.53;4961783;28;20217;-68
2021/09/17 00:58:46;;;;;;;8.07;7.27;;;;;;;8.31;100.00;98111.34;4964336;28;20935;-68
2021/09/17 01:01:14;;;;;;;7.33;6.27;;;;;;;8.26;100.00;98109.16;5000899;28;20216;-68
2021/09/17 01:03:43;;;;;;;9.13;6.57;;;;;;;8.27;100.00;98108.19;4996047;28;20271;-67
2021/09/17 01:06:11;;;;;;;7.07;6.37;;;;;;;8.25;100.00;98105.66;4983126;28;20692;-67
2021/09/17 01:08:40;;;;;;;6.33;5.73;;;;;;;8.16;100.00;98098.63;4992681;28;20631;-67
2021/09/17 01:11:08;;;;;;;8.57;6.40;;;;;;;8.20;100.00;98100.00;5000349;28;20213;-67
2021/09/17 01:13:36;;;;;;;7.23;6.63;;;;;;;8.18;100.00;98099.31;4958369;28;20225;-66
2021/09/17 01:16:04;;;;;;;7.63;7.03;;;;;;;8.18;100.00;98106.41;4998147;28;20212;-66
2021/09/17 01:18:32;;;;;;;7.60;6.77;;;;;;;8.14;100.00;98103.22;4993790;28;20231;-66
2021/09/17 01:21:03;;;;;;;7.07;6.47;;;;;;;8.13;100.00;98101.56;4984281;28;20212;-67
2021/09/17 01:23:31;;;;;;;8.07;7.27;;;;;;;8.11;100.00;98101.69;4991242;28;20212;-66
2021/09/17 01:25:59;;;;;;;7.13;6.50;;;;;;;8.09;100.00;98101.00;4996740;28;20766;-67
2021/09/17 01:28:28;;;;;;;7.10;6.40;;;;;;;8.08;100.00;98115.19;4962162;28;20255;-66
2021/09/17 01:30:56;;;;;;;7.23;6.53;;;;;;;8.08;100.00;98099.34;4983345;28;20215;-68
2021/09/17 01:33:25;;;;;;;7.10;6.40;;;;;;;8.14;100.00;98100.59;5002439;28;20258;-66
2021/09/17 01:35:57;;;;;;;7.20;6.33;;;;;;;8.16;100.00;98098.63;4985523;28;20918;-67
2021/09/17 01:38:28;;;;;;;8.07;7.27;;;;;;;8.19;100.00;98100.16;4984183;28;20225;-66
2021/09/17 01:40:56;;;;;;;7.13;6.43;;;;;;;8.22;100.00;98095.41;4995322;28;20734;-67
2021/09/17 01:43:25;;;;;;;7.27;6.70;;;;;;;8.19;100.00;98087.78;4967128;28;20323;-66
2021/09/17 01:45:53;;;;;;;6.93;6.33;;;;;;;8.29;100.00;98089.53;4992566;28;20379;-68
2021/09/17 01:48:21;;;;;;;7.10;6.47;;;;;;;8.37;100.00;98089.66;5000579;28;20221;-66
2021/09/17 01:50:49;;;;;;;8.50;5.77;;;;;;;8.39;100.00;98095.63;4988130;28;20648;-68
2021/09/17 01:53:16;;;;;;;6.87;6.27;;;;;;;8.45;100.00;98091.53;4999973;28;20295;-68
2021/09/17 01:55:46;;;;;;;7.37;6.67;;;;;;;8.50;100.00;98089.31;4993389;28;20201;-67
2021/09/17 01:58:14;;;;;;;6.07;5.67;;;;;;;8.62;100.00;98085.50;5000156;28;20224;-68
2021/09/17 02:00:42;;;;;;;6.97;6.37;;;;;;;8.57;100.00;98085.13;4958023;28;20405;-68
2021/09/17 02:03:10;;;;;;;6.13;5.63;;;;;;;8.66;100.00;98084.22;4994430;28;20209;-67
2021/09/17 02:05:38;;;;;;;6.57;5.90;;;;;;;8.72;100.00;98081.94;4980755;28;20197;-66
2021/09/17 02:08:06;;;;;;;7.10;6.40;;;;;;;8.83;100.00;98084.34;4995250;28;20460;-68
2021/09/17 02:10:34;;;;;;;6.43;5.83;;;;;;;8.82;100.00;98083.53;4995044;28;20744;-66
2021/09/17 02:13:03;;;;;;;6.80;6.13;;;;;;;8.95;100.00;98079.69;4997951;28;20219;-68
2021/09/17 02:15:32;;;;;;;6.37;5.83;;;;;;;9.06;100.00;98078.63;4956544;28;20720;-66
2021/09/17 02:18:00;;;;;;;7.40;5.90;;;;;;;9.01;100.00;98075.63;4991976;28;20236;-68
2021/09/17 02:20:28;;;;;;;6.43;5.83;;;;;;;8.95;100.00;98080.53;4992588;28;20576;-66
2021/09/17 02:22:57;;;;;;;6.80;6.30;;;;;;;9.02;100.00;98077.28;4993331;28;20208;-68
2021/09/17 02:25:25;;;;;;;5.73;5.23;;;;;;;8.94;100.00;98070.09;5004415;28;20209;-66
2021/09/17 02:27:53;;;;;;;6.47;5.87;;;;;;;8.99;100.00;98073.09;4994354;28;20543;-68
2021/09/17 02:30:23;;;;;;;6.23;5.63;;;;;;;9.11;100.00;98074.56;4960494;28;20621;-66
2021/09/17 02:32:51;;;;;;;5.63;5.17;;;;;;;9.13;100.00;98069.09;4994015;28;20475;-68
2021/09/17 02:35:19;;;;;;;7.00;6.40;;;;;;;9.19;100.00;98063.19;5001967;28;20207;-67
2021/09/17 02:37:47;;;;;;;7.47;5.73;;;;;;;9.11;100.00;98061.34;4987268;28;20228;-68
2021/09/17 02:40:16;;;;;;;6.87;6.27;;;;;;;9.22;100.00;98067.34;5000160;28;20216;-68
2021/09/17 02:42:44;;;;;;;6.30;5.70;;;;;;;9.20;100.00;98059.56;4978984;28;20474;-68
2021/09/17 02:45:13;;;;;;;6.33;5.83;;;;;;;9.23;100.00;98064.53;4966354;28;20724;-68
2021/09/17 02:47:43;;;;;;;6.23;5.73;;;;;;;9.19;100.00;98059.72;4988628;28;20676;-69
2021/09/17 02:50:12;;;;;;;5.47;5.07;;;;;;;9.17;100.00;98053.78;4984386;28;20300;-69
2021/09/17 02:52:40;;;;;;;6.17;5.67;;;;;;;9.22;100.00;98054.13;4985125;28;20696;-69
2021/09/17 02:55:09;;;;;;;5.70;5.30;;;;;;;9.27;100.00;98047.38;4997278;28;20212;-66
2021/09/17 02:57:37;;;;;;;6.73;6.20;;;;;;;9.30;100.00;98051.53;4995506;28;20233;-67
2021/09/17 03:00:08;;;;;;;5.60;4.83;;;;;;;9.28;100.00;98050.88;4998220;28;20205;-66
2021/09/17 03:02:36;;;;;;;6.10;5.60;;;;;;;9.18;100.00;98048.31;4949518;28;20224;-67
2021/09/17 03:05:07;;;;;;;6.47;5.67;;;;;;;9.26;100.00;98048.38;4959936;28;20419;-68
2021/09/17 03:07:35;;;;;;;6.40;5.90;;;;;;;9.22;100.00;98049.66;4983449;28;20236;-66
2021/09/17 03:10:03;;;;;;;6.13;5.63;;;;;;;9.28;100.00;98042.94;5002018;28;20454;-68
2021/09/17 03:12:31;;;;;;;6.63;6.13;;;;;;;9.25;100.00;98046.69;4986854;28;20245;-66
2021/09/17 03:14:59;;;;;;;6.77;6.17;;;;;;;9.39;100.00;98037.38;4992561;28;20269;-67
2021/09/17 03:17:27;;;;;;;6.70;6.00;;;;;;;9.29;100.00;98041.94;5000718;28;20734;-67
2021/09/17 03:19:55;;;;;;;6.37;5.87;;;;;;;9.31;100.00;98039.16;4966214;28;20610;-67
2021/09/17 03:22:25;;;;;;;6.40;5.90;;;;;;;9.27;100.00;98042.09;5007323;28;20216;-68
2021/09/17 03:24:52;;;;;;;6.27;5.77;;;;;;;9.31;100.00;98042.63;5001883;28;20205;-66
2021/09/17 03:27:20;;;;;;;9.20;6.30;;;;;;;9.21;100.00;98044.53;4993066;28;20209;-68
2021/09/17 03:29:48;;;;;;;6.83;6.23;;;;;;;9.29;100.00;98041.13;5000646;28;20228;-66
2021/09/17 03:32:16;;;;;;;6.03;5.33;;;;;;;9.25;100.00;98044.06;5004279;28;20205;-68
2021/09/17 03:34:46;;;;;;;5.90;5.40;;;;;;;9.18;100.00;98047.50;4976753;28;20205;-66
2021/09/17 03:37:14;;;;;;;6.93;6.23;;;;;;;9.12;100.00;98046.28;4995063;28;20213;-68
2021/09/17 03:39:43;;;;;;;5.70;5.20;;;;;;;9.09;100.00;98051.88;4996799;28;20224;-66
2021/09/17 03:42:11;;;;;;;7.10;6.47;;;;;;;9.04;100.00;98047.03;4998315;28;20290;-68
2021/09/17 03:44:39;;;;;;;6.07;5.57;;;;;;;9.01;100.00;98041.25;4991873;28;20211;-66
2021/09/17 03:47:07;;;;;;;6.93;6.33;;;;;;;9.05;100.00;98040.78;5001533;28;20394;-67
2021/09/17 03:49:35;;;;;;;7.87;5.87;;;;;;;9.02;100.00;98048.19;5004080;28;20354;-66
2021/09/17 03:52:03;;;;;;;6.20;5.70;;;;;;;8.97;100.00;98038.06;4966645;28;20400;-68
2021/09/17 03:54:31;;;;;;;7.03;5.70;;;;;;;8.90;100.00;98039.66;4990573;28;20716;-66
2021/09/17 03:57:00;;;;;;;6.50;5.90;;;;;;;8.91;100.00;98043.97;5004789;28;20212;-67
2021/09/17 03:59:28;;;;;;;8.53;5.43;;;;;;;8.86;100.00;98040.97;4987525;28;20225;-66
2021/09/17 04:02:00;;;;;;;5.87;5.40;;;;;;;8.79;100.00;98046.00;4999491;28;20430;-67
2021/09/17 04:04:29;;;;;;;5.63;5.13;;;;;;;8.82;100.00;98046.53;4996311;28;20205;-66
2021/09/17 04:06:58;;;;;;;5.90;5.40;;;;;;;8.84;100.00;98049.03;4964013;28;20415;-67
2021/09/17 04:09:26;;;;;;;5.97;5.57;;;;;;;8.77;100.00;98046.19;4994934;28;20712;-68
2021/09/17 04:11:54;;;;;;;6.20;5.70;;;;;;;8.86;100.00;98052.34;4993552;28;20227;-67
2021/09/17 04:14:23;;;;;;;6.13;5.57;;;;;;;8.78;100.00;98045.19;4995943;28;20301;-69
2021/09/17 04:16:51;;;;;;;6.07;5.53;;;;;;;8.79;100.00;98046.00;4977351;28;20318;-68
2021/09/17 04:19:19;;;;;;;5.73;5.10;;;;;;;8.72;100.00;98045.81;4999571;28;20724;-68
2021/09/17 04:21:47;;;;;;;5.87;5.37;;;;;;;8.69;100.00;98044.28;4966782;28;20205;-67
2021/09/17 04:24:15;;;;;;;6.37;5.87;;;;;;;8.69;100.00;98051.34;4997604;28;20248;-69
2021/09/17 04:26:44;;;;;;;6.77;5.60;;;;;;;8.66;100.00;98044.59;4995315;28;20257;-68
2021/09/17 04:29:12;;;;;;;5.50;5.10;;;;;;;8.69;100.00;98051.34;5001264;28;20229;-68
2021/09/17 04:31:42;;;;;;;6.30;5.70;;;;;;;8.65;100.00;98055.28;4986134;28;20389;-68
2021/09/17 04:34:10;;;;;;;7.07;6.47;;;;;;;8.60;100.00;98047.81;4996412;28;20212;-69
2021/09/17 04:36:37;;;;;;;5.97;5.47;;;;;;;8.63;100.00;98050.16;4995208;28;20216;-69
2021/09/17 04:39:05;;;;;;;5.93;5.40;;;;;;;8.65;100.00;98058.78;4964674;28;20251;-69
2021/09/17 04:41:34;;;;;;;6.37;5.77;;;;;;;8.69;100.00;98057.50;5002376;28;20209;-69
2021/09/17 04:44:02;;;;;;;6.10;5.60;;;;;;;8.69;100.00;98060.13;4991903;28;20367;-69
2021/09/17 04:46:30;;;;;;;6.40;5.80;;;;;;;8.67;100.00;98064.72;4973571;28;20220;-69
2021/09/17 04:48:59;;;;;;;6.30;5.73;;;;;;;8.68;100.00;98065.53;5006412;28;20251;-68
2021/09/17 04:51:27;;;;;;;7.00;6.40;;;;;;;8.74;100.00;98058.84;4970043;28;20251;-70
2021/09/17 04:53:55;;;;;;;6.57;5.97;;;;;;;8.63;100.00;98060.72;4968403;28;20232;-71
2021/09/17 04:56:23;;;;;;;6.17;5.67;;;;;;;8.57;100.00;98058.69;4984068;28;20749;-70
2021/09/17 04:58:51;;;;;;;7.47;6.63;;;;;;;8.61;100.00;98056.56;4995579;28;20597;-69
2021/09/17 05:01:19;;;;;;;8.30;6.40;;;;;;;8.72;100.00;98061.66;4983026;28;20439;-70
2021/09/17 05:03:50;;;;;;;6.73;6.03;;;;;;;8.75;100.00;98060.50;4998114;28;20295;-70
2021/09/17 05:06:19;;;;;;;6.73;6.13;;;;;;;8.76;100.00;98060.38;4984711;28;20243;-70
2021/09/17 05:08:47;;;;;;;6.40;5.83;;;;;;;8.72;100.00;98063.44;4967881;28;20247;-70
2021/09/17 05:11:15;;;;;;;9.03;6.17;;;;;;;8.72;100.00;98056.38;4963100;28;20369;-70
2021/09/17 05:13:43;;;;;;;7.10;6.43;;;;;;;8.86;100.00;98060.28;4992381;28;20350;-70
2021/09/17 05:16:11;;;;;;;8.10;5.97;;;;;;;8.85;100.00;98065.72;4999388;28;20267;-70
2021/09/17 05:18:39;;;;;;;6.27;5.67;;;;;;;8.68;100.00;98062.91;4997389;28;20224;-69
2021/09/17 05:21:07;;;;;;;6.63;6.03;;;;;;;8.83;100.00;98063.22;5002734;28;20212;-70
2021/09/17 05:23:36;;;;;;;6.53;6.00;;;;;;;9.00;100.00;98072.13;4993927;28;20216;-70
2021/09/17 05:26:05;;;;;;;6.23;5.73;;;;;;;9.08;100.00;98071.38;4977199;28;20224;-70
2021/09/17 05:28:33;;;;;;;6.87;6.27;;;;;;;9.18;100.00;98072.09;4994874;28;20227;-70
2021/09/17 05:31:01;;;;;;;6.30;5.70;;;;;;;9.20;100.00;98069.31;4998782;28;20229;-70
2021/09/17 05:33:29;;;;;;;6.90;6.40;;;;;;;9.09;100.00;98068.59;5005619;28;20228;-70
2021/09/17 05:35:57;;;;;;;6.57;5.53;;;;;;;9.00;100.00;98068.66;5001644;28;20209;-69
2021/09/17 05:38:25;;;;;;;6.97;6.37;;;;;;;9.01;100.00;98068.50;4978283;28;20633;-68
2021/09/17 05:40:55;;;;;;;8.17;6.57;;;;;;;9.06;100.00;98062.75;4957502;28;20832;-69
2021/09/17 05:43:22;;;;;;;6.53;5.93;;;;;;;9.18;100.00;98076.59;4983680;28;20228;-67
2021/09/17 05:45:50;;;;;;;7.03;6.33;;;;;;;9.39;100.00;98069.13;4990157;28;20725;-68
2021/09/17 05:48:18;;;;;;;7.87;7.07;;;;;;;9.45;100.00;98070.34;4998882;28;20235;-68
2021/09/17 05:50:46;;;;;;;6.93;6.20;;;;;;;9.66;100.00;98069.13;4999080;28;20230;-70
2021/09/17 05:53:15;;;;;;;7.20;6.50;;;;;;;9.73;100.00;98072.81;4998474;28;20211;-68
2021/09/17 05:55:43;;;;;;;8.70;6.53;;;;;;;9.70;100.00;98066.03;4989931;28;20602;-68
2021/09/17 05:58:12;;;;;;;6.87;6.17;;;;;;;9.84;100.00;98075.19;4958999;28;20239;-68
2021/09/17 06:00:40;;;;;;;6.37;5.87;;;;;;;9.93;100.00;98077.88;4989433;28;20224;-67
2021/09/17 06:03:08;;;;;;;7.37;6.77;;;;;;;10.00;100.00;98081.56;4996930;28;20763;-69
2021/09/17 06:05:36;;;;;;;6.23;5.73;;;;;;;10.04;100.00;98082.91;4990899;28;20216;-67
2021/09/17 06:08:05;;;;;;;7.80;6.50;;;;;;;10.09;100.00;98082.44;5003901;28;20248;-69
2021/09/17 06:10:33;;;;;;;7.27;6.57;;;;;;;10.25;100.00;98084.31;4993891;28;20256;-68
2021/09/17 06:13:01;;;;;;;6.93;6.33;;;;;;;10.31;100.00;98088.16;4967160;28;20304;-68
2021/09/17 06:15:30;;;;;;;7.03;6.53;;;;;;;10.29;100.00;98088.31;4990079;28;20212;-68
2021/09/17 06:17:58;;;;;;;8.03;7.27;;;;;;;10.44;100.00;98090.38;4986758;28;20532;-68
2021/09/17 06:20:26;;;;;;;6.20;5.70;;;;;;;10.51;100.00;98088.75;4984718;28;20903;-69
2021/09/17 06:22:55;;;;;;;6.20;5.70;;;;;;;10.56;100.00;98087.25;4988530;28;20209;-68
2021/09/17 06:25:24;;;;;;;7.07;6.50;;;;;;;10.73;100.00;98086.47;4990166;28;20460;-68
2021/09/17 06:27:52;;;;;;;6.83;6.33;;;;;;;10.79;100.00;98083.16;4982858;28;20868;-69
2021/09/17 06:30:21;;;;;;;6.97;6.47;;;;;;;10.74;100.00;98088.97;4963638;28;20216;-69
2021/09/17 06:32:51;;;;;;;8.50;6.47;;;;;;;10.85;100.00;98086.00;4999214;28;20613;-69
2021/09/17 06:35:19;;;;;;;8.40;7.57;;;;;;;10.90;100.00;98079.38;4994959;28;20910;-70
2021/09/17 06:37:49;;;;;;;7.00;6.40;;;;;;;10.91;100.00;98086.31;4998160;28;20492;-70
2021/09/17 06:40:17;;;;;;;8.47;7.20;;;;;;;10.93;100.00;98085.19;4986447;28;20668;-69
2021/09/17 06:42:45;;;;;;;9.37;6.77;;;;;;;10.82;100.00;98075.72;4981669;28;20213;-68
2021/09/17 06:45:13;;;;;;;8.40;7.27;;;;;;;10.87;100.00;98077.91;4959902;28;20720;-70
2021/09/17 06:47:45;;;;;;;7.87;7.17;;;;;;;10.96;100.00;98074.25;4997425;28;20228;-70
2021/09/17 06:50:16;;;;;;;9.17;8.27;;;;;;;11.07;100.00;98078.41;4995389;28;20216;-69
2021/09/17 06:52:48;;;;;;;9.33;7.67;;;;;;;11.06;100.00;98083.84;4997220;28;20472;-70
2021/09/17 06:55:17;;;;;;;9.23;7.33;;;;;;;11.25;100.00;98075.59;4992946;28;20640;-70
2021/09/17 06:57:49;;;;;;;9.40;8.17;;;;;;;11.33;100.00;98081.88;4992322;28;20776;-69
2021/09/17 07:00:18;;;;;;;12.43;8.67;;;;;;;11.55;100.00;98064.44;4964173;28;20259;-70
2021/09/17 07:02:46;;;;;;;10.27;9.00;;;;;;;11.62;100.00;98061.94;4998166;28;20232;-68
2021/09/17 07:05:16;;;;;;;11.50;9.10;;;;;;;11.71;100.00;98066.25;4999868;28;20208;-70
2021/09/17 07:07:45;;;;;;;9.90;8.87;;;;;;;11.93;100.00;98074.47;4986499;28;20913;-68
2021/09/17 07:10:14;;;;;;;11.77;10.27;;;;;;;12.09;100.00;98074.44;4993816;28;20220;-70
2021/09/17 07:12:42;;;;;;;13.23;10.80;;;;;;;12.31;100.00;98074.69;4981900;28;20237;-69
2021/09/17 07:15:10;;;;;;;11.83;10.83;;;;;;;12.52;100.00;98076.75;4970616;28;20243;-68
2021/09/17 07:17:44;;;;;;;11.87;10.80;;;;;;;12.58;100.00;98064.59;4998261;28;20328;-69
2021/09/17 07:20:17;;;;;;;13.00;11.70;;;;;;;12.97;100.00;98074.31;5003515;28;20624;-68
2021/09/17 07:22:57;;;;;;;14.40;11.57;;;;;;;13.40;100.00;98072.97;4971258;28;20678;-70
2021/09/17 07:25:28;;;;;;;11.53;10.53;;;;;;;13.39;100.00;98076.63;4999612;28;20449;-67
2021/09/17 07:27:56;;;;;;;13.97;12.67;;;;;;;13.42;100.00;98071.81;5003269;28;20232;-68
2021/09/17 07:30:24;;;;;;;13.57;12.17;;;;;;;13.72;100.00;98071.88;4995171;28;20870;-70
2021/09/17 07:32:53;;;;;;;14.47;13.07;;;;;;;13.78;100.00;98072.16;4996023;28;20220;-69
2021/09/17 07:35:22;;;;;;;14.50;13.20;;;;;;;13.48;100.00;98077.44;5002559;28;20239;-70
2021/09/17 07:37:50;;;;;;;13.33;12.07;;;;;;;13.66;100.00;98080.59;4982911;28;20232;-70
2021/09/17 07:40:18;;;;;;;13.47;12.17;;;;;;;13.66;100.00;98071.75;4979887;28;20253;-68
2021/09/17 07:42:48;;;;;;;13.20;12.10;;;;;;;13.64;100.00;98074.63;5002396;28;20197;-70
2021/09/17 07:45:17;;;;;;;14.00;12.23;;;;;;;13.87;100.00;98082.53;4984774;28;20219;-68
2021/09/17 07:47:45;;;;;;;12.53;11.43;;;;;;;13.88;100.00;98076.19;5004252;28;20233;-68
2021/09/17 07:50:15;;;;;;;13.17;11.50;;;;;;;13.95;100.00;98081.59;5000822;28;20212;-68
2021/09/17 07:52:44;;;;;;;13.63;12.07;;;;;;;14.14;100.00;98077.56;4972830;28;20391;-71
2021/09/17 07:55:13;;;;;;;14.97;13.10;;;;;;;14.53;100.00;98082.75;4999536;28;20215;-69
2021/09/17 07:57:41;;;;;;;12.80;11.73;;;;;;;14.75;100.00;98089.81;5003119;28;20633;-70
2021/09/17 08:00:12;;;;;;;13.63;12.27;;;;;;;14.78;100.00;98085.09;4991126;28;20389;-69
2021/09/17 08:02:40;;;;;;;13.23;12.13;;;;;;;14.38;100.00;98080.94;5002651;28;20572;-70
2021/09/17 08:05:12;;;;;;;13.20;11.50;;;;;;;14.46;100.00;98088.00;5003863;28;20269;-70
2021/09/17 08:07:40;;;;;;;13.47;12.17;;;;;;;14.83;100.00;98090.69;4978186;28;20319;-70
2021/09/17 08:10:10;;;;;;;13.67;12.37;;;;;;;14.69;100.00;98087.88;4999104;28;20223;-69
2021/09/17 08:12:38;;;;;;;12.83;11.80;;;;;;;14.83;100.00;98091.53;4995877;28;20232;-70
2021/09/17 08:15:07;;;;;;;12.50;11.27;;;;;;;14.99;100.00;98085.13;4984156;28;20213;-69
2021/09/17 08:17:35;;;;;;;11.83;10.83;;;;;;;15.45;100.00;98083.06;5002085;28;20301;-71
2021/09/17 08:20:05;;;;;;;13.03;11.37;;;;;;;15.40;100.00;98083.63;4996186;28;20284;-69
2021/09/17 08:22:32;;;;;;;13.87;12.47;;;;;;;15.32;100.00;98094.47;4997702;28;20220;-68
2021/09/17 08:25:01;;;;;;;11.90;10.90;;;;;;;15.33;100.00;98088.09;4980215;28;20223;-68
2021/09/17 08:27:31;;;;;;;11.80;10.70;;;;;;;15.31;100.00;98098.16;4998552;28;20558;-71
2021/09/17 08:29:59;;;;;;;11.47;10.47;;;;;;;15.21;100.00;98089.66;4981783;28;20224;-73
2021/09/17 08:32:27;;;;;;;12.63;11.37;;;;;;;15.07;100.00;98089.50;5002349;28;20229;-72
2021/09/17 08:34:55;;;;;;;12.27;11.07;;;;;;;15.04;100.00;98088.06;4998524;28;20208;-72
2021/09/17 08:37:22;;;;;;;12.17;11.10;;;;;;;15.24;100.00;98095.41;4998474;28;20215;-69
2021/09/17 08:39:50;;;;;;;12.13;10.87;;;;;;;15.36;100.00;98092.25;4972953;28;20635;-69
2021/09/17 08:42:18;;;;;;;12.27;11.17;;;;;;;15.45;100.00;98091.88;4992992;28;20205;-72
2021/09/17 08:44:48;;;;;;;11.80;10.70;;;;;;;15.38;100.00;98090.19;4998305;28;20205;-73
2021/09/17 08:47:16;;;;;;;11.87;10.70;;;;;;;15.62;100.00;98091.63;4979022;28;20213;-69
2021/09/17 08:49:45;;;;;;;11.20;10.30;;;;;;;15.75;100.00;98085.56;4985478;28;20208;-69
2021/09/17 08:52:13;;;;;;;11.77;10.77;;;;;;;15.68;100.00;98084.66;4996822;28;20232;-72
2021/09/17 08:54:46;;;;;;;10.77;9.80;;;;;;;16.05;100.00;98086.16;4974056;28;20604;-69
2021/09/17 08:57:14;;;;;;;11.20;10.10;;;;;;;16.09;100.00;98078.56;4991534;28;20205;-69
2021/09/17 08:59:43;;;;;;;11.23;10.33;;;;;;;15.99;100.00;98072.75;4999287;28;20212;-69
2021/09/17 09:02:23;;;;;;;9.70;8.93;;;;;;;15.99;100.00;98078.94;4998791;28;20220;-69
2021/09/17 09:04:59;;;;;;;11.63;10.53;;;;;;;16.12;100.00;98077.34;5006615;28;20263;-69
2021/09/17 09:07:28;;;;;;;9.03;8.20;;;;;;;16.22;100.00;98079.69;4997127;28;20320;-70
2021/09/17 09:09:57;;;;;;;10.13;9.23;;;;;;;16.25;100.00;98077.41;4979658;28;20239;-69
2021/09/17 09:12:26;;;;;;;10.07;9.17;;;;;;;16.49;100.00;98070.75;4994021;28;20201;-70
2021/09/17 09:15:12;;;;;;;9.93;9.00;;;;;;;16.77;100.00;98067.09;5002459;28;20215;-69
2021/09/17 09:17:41;;;;;;;9.03;8.33;;;;;;;16.64;100.00;98072.44;5000528;28;20216;-70
2021/09/17 09:20:25;;;;;;;5.80;5.40;;;;;;;16.96;100.00;98070.03;5000843;28;20208;-68
2021/09/17 09:23:20;;;;;;;8.30;7.60;;;;;;;16.66;100.00;98067.69;4999769;28;20295;-70
2021/09/17 09:25:59;;;;;;;7.40;6.77;;;;;;;16.61;100.00;98070.16;4976538;28;20259;-70
2021/09/17 09:28:30;;;;;;;5.30;4.80;;;;;;;16.53;100.00;98065.81;5001603;28;20223;-69
2021/09/17 09:31:02;;;;;;;5.67;5.20;;;;;;;16.87;100.00;98065.91;5016729;28;20212;-68
2021/09/17 09:33:34;;;;;;;5.43;5.03;;;;;;;16.93;100.00;98065.09;4955303;28;20434;-68
2021/09/17 09:36:05;;;;;;;5.60;5.20;;;;;;;17.59;100.00;98063.47;4993102;28;20221;-68
2021/09/17 09:38:42;;;;;;;6.37;5.50;;;;;;;17.49;100.00;98065.75;4967605;28;20766;-69
2021/09/17 09:41:13;;;;;;;5.40;4.90;;;;;;;17.82;100.00;98064.09;4995243;28;20211;-68
2021/09/17 09:43:43;;;;;;;4.73;4.43;;;;;;;17.46;100.00;98060.81;4988263;28;20543;-69
2021/09/17 09:46:33;;;;;;;4.97;4.67;;;;;;;17.25;100.00;98053.81;4997926;28;20211;-69
2021/09/17 09:49:05;;;;;;;5.30;4.70;;;;;;;17.55;100.00;98054.22;4997409;28;20239;-68
2021/09/17 09:51:35;;;;;;;5.40;4.90;;;;;;;17.50;100.00;98057.53;4990678;28;20220;-69
2021/09/17 09:54:04;;;;;;;4.70;4.30;;;;;;;17.46;100.00;98052.78;4995510;28;20755;-69
2021/09/17 09:56:32;;;;;;;4.40;4.10;;;;;;;17.17;100.00;98046.81;4979348;28;20210;-70
2021/09/17 09:59:03;;;;;;;4.00;3.70;;;;;;;17.33;100.00;98046.41;4977225;28;20241;-69
2021/09/17 10:01:34;;;;;;;4.63;4.23;;;;;;;17.46;100.00;98050.09;4999380;28;20220;-69
2021/09/17 10:04:05;;;;;;;4.73;4.43;;;;;;;17.28;100.00;98050.72;4968515;28;20212;-68
2021/09/17 10:06:36;;;;;;;3.63;3.30;;;;;;;16.94;100.00;98048.00;4979472;28;20299;-69
2021/09/17 10:09:05;;;;;;;3.90;3.60;;;;;;;16.95;100.00;98046.97;4994524;28;20251;-68
2021/09/17 10:11:34;;;;;;;3.27;3.07;;;;;;;16.57;100.00;98050.19;4982156;28;20429;-68
2021/09/17 10:14:07;;;;;;;3.60;2.97;;;;;;;16.49;100.00;98041.31;4992781;28;20693;-68
2021/09/17 10:16:36;;;;;;;2.93;2.73;;;;;;;16.43;100.00;98039.44;4973901;28;20264;-69
2021/09/17 10:19:06;;;;;;;3.37;3.07;;;;;;;16.29;100.00;98038.59;4973963;28;20247;-68
2021/09/17 10:21:54;;;;;;;4.93;4.63;;;;;;;16.35;100.00;98036.94;4998505;28;20326;-69
2021/09/17 10:24:39;;;;;;;3.60;3.40;;;;;;;16.18;100.00;98036.47;4997530;28;20230;-69
2021/09/17 10:27:11;;;;;;;3.47;3.27;;;;;;;16.15;100.00;98040.38;4984527;28;20209;-69
2021/09/17 10:29:40;;;;;;;3.67;3.37;;;;;;;16.29;100.00;98027.88;4991387;28;20209;-69
2021/09/17 10:32:30;;;;;;;5.67;3.43;;;;;;;16.32;100.00;98027.47;4983320;28;20216;-69
2021/09/17 10:35:04;;;;;;;4.13;3.20;;;;;;;16.48;100.00;98030.81;4968439;28;20239;-69
2021/09/17 10:37:55;;;;;;;3.73;3.53;;;;;;;16.81;100.00;98038.09;4997563;28;20449;-69
2021/09/17 10:40:43;;;;;;;3.57;3.37;;;;;;;17.13;100.00;98035.69;4981796;28;20219;-69
2021/09/17 10:43:16;;;;;;;3.27;3.07;;;;;;;17.46;100.00;98034.88;4983619;28;20212;-69
2021/09/17 10:45:45;;;;;;;4.37;4.07;;;;;;;17.75;100.00;98032.75;4992950;28;20224;-68
2021/09/17 10:48:14;;;;;;;4.40;3.83;;;;;;;17.60;100.00;98035.66;4987143;28;20239;-69
2021/09/17 10:50:50;;;;;;;4.10;3.77;;;;;;;18.06;100.00;98025.06;4975338;28;20744;-69
2021/09/17 10:54:03;;;;;;;4.40;4.10;;;;;;;18.62;100.00;98031.63;4995581;28;20208;-69
2021/09/17 10:57:05;;;;;;;4.00;3.70;;;;;;;18.71;100.00;98026.81;4992819;28;20438;-69
2021/09/17 10:59:43;;;;;;;3.73;3.53;;;;;;;18.73;100.00;98019.38;4984681;28;20754;-70
2021/09/17 11:02:12;;;;;;;3.10;2.90;;;;;;;18.60;100.00;98022.13;4978712;28;20546;-69
2021/09/17 11:04:41;;;;;;;2.70;2.50;;;;;;;18.54;93.85;98021.13;4974144;28;20461;-69
2021/09/17 11:07:34;;;;;;;3.57;3.33;;;;;;;18.33;93.18;98019.59;4995662;28;20229;-69
2021/09/17 11:10:04;;;;;;;3.67;3.47;;;;;;;17.99;99.80;98019.69;4999447;28;20208;-69
2021/09/17 11:12:33;;;;;;;3.07;2.90;;;;;;;17.83;100.00;98026.34;4969441;28;20204;-69
2021/09/17 11:15:07;;;;;;;3.20;3.00;;;;;;;18.06;100.00;98023.19;4995548;28;20910;-68
2021/09/17 11:17:44;;;;;;;4.67;3.50;;;;;;;17.90;100.00;98011.06;4967206;28;20244;-70
2021/09/17 11:20:16;;;;;;;3.10;2.80;;;;;;;17.58;100.00;98012.78;4973054;28;20208;-68
2021/09/17 11:22:50;;;;;;;3.20;2.90;;;;;;;17.60;100.00;98011.53;5000444;28;20417;-69
2021/09/17 11:25:23;;;;;;;3.47;3.27;;;;;;;17.80;100.00;97999.97;4991145;28;20928;-69
2021/09/17 11:27:52;;;;;;;3.53;3.33;;;;;;;18.11;100.00;98013.69;5004645;28;20335;-68
2021/09/17 11:30:22;;;;;;;4.80;2.90;;;;;;;18.06;100.00;98011.66;4985330;28;20944;-69
2021/09/17 11:32:50;;;;;;;3.37;3.17;;;;;;;18.16;100.00;98012.03;4992636;28;20244;-69
2021/09/17 11:35:18;;;;;;;3.60;3.30;;;;;;;18.49;98.96;98004.84;4976214;28;20243;-69
2021/09/17 11:37:52;;;;;;;3.83;3.63;;;;;;;18.16;100.00;98004.00;4971111;28;20240;-69
2021/09/17 11:40:21;;;;;;;2.87;2.77;;;;;;;18.76;95.74;98004.69;5001494;28;20211;-68